sensor_id;sensor_type;location;lat;lon;timestamp;temperature;humidity
25468;DHT22;13384;24.794;110.498;2023-04-06T00:02:05;16.30;99.90
25468;DHT22;13384;24.794;110.498;2023-04-06T00:04:37;16.30;99.90
25468;DHT22;13384;24.794;110.498;2023-04-06T00:07:09;16.30;99.90
25468;DHT22;13384;24.794;110.498;2023-04-06T00:09:46;16.30;99.90
25468;DHT22;13384;24.794;110.498;2023-04-06T00:12:17;16.20;99.90
25468;DHT22;13384;24.794;110.498;2023-04-06T00:14:49;16.20;99.90
25468;DHT22;13384;24.794;110.498;2023-04-06T00:17:21;16.20;99.90
25468;DHT22;13384;24.794;110.498;2023-04-06T00:19:55;16.20;99.90
25468;DHT22;13384;24.794;110.498;2023-04-06T00:22:26;16.30;99.90
25468;DHT22;13384;24.794;110.498;2023-04-06T00:24:58;16.30;99.90
25468;DHT22;13384;24.794;110.498;2023-04-06T00:27:29;16.20;99.90
25468;DHT22;13384;24.794;110.498;2023-04-06T00:30:06;16.20;99.90
25468;DHT22;13384;24.794;110.498;2023-04-06T00:32:38;16.20;99.90
25468;DHT22;13384;24.794;110.498;2023-04-06T00:35:10;16.20;99.90
25468;DHT22;13384;24.794;110.498;2023-04-06T00:37:41;16.20;99.90
25468;DHT22;13384;24.794;110.498;2023-04-06T00:40:13;16.10;99.90
25468;DHT22;13384;24.794;110.498;2023-04-06T00:42:46;15.80;99.90
25468;DHT22;13384;24.794;110.498;2023-04-06T00:45:18;16.00;99.90
25468;DHT22;13384;24.794;110.498;2023-04-06T00:47:50;16.10;99.90
25468;DHT22;13384;24.794;110.498;2023-04-06T00:50:24;16.10;99.90
25468;DHT22;13384;24.794;110.498;2023-04-06T00:52:59;15.90;99.90
25468;DHT22;13384;24.794;110.498;2023-04-06T00:55:34;15.80;99.90
25468;DHT22;13384;24.794;110.498;2023-04-06T00:58:26;15.80;99.90
25468;DHT22;13384;24.794;110.498;2023-04-06T01:01:05;16.00;99.90
25468;DHT22;13384;24.794;110.498;2023-04-06T01:03:37;16.00;99.90
25468;DHT22;13384;24.794;110.498;2023-04-06T01:06:13;15.90;99.90
25468;DHT22;13384;24.794;110.498;2023-04-06T01:09:11;15.90;99.90
25468;DHT22;13384;24.794;110.498;2023-04-06T01:11:44;15.90;99.90
25468;DHT22;13384;24.794;110.498;2023-04-06T01:14:19;15.90;99.90
25468;DHT22;13384;24.794;110.498;2023-04-06T01:16:59;15.80;99.90
25468;DHT22;13384;24.794;110.498;2023-04-06T01:19:33;15.60;99.90
25468;DHT22;13384;24.794;110.498;2023-04-06T01:22:06;15.60;99.90
25468;DHT22;13384;24.794;110.498;2023-04-06T01:24:45;15.50;99.90
25468;DHT22;13384;24.794;110.498;2023-04-06T01:27:23;15.40;99.90
25468;DHT22;13384;24.794;110.498;2023-04-06T01:30:20;15.50;99.90
25468;DHT22;13384;24.794;110.498;2023-04-06T01:33:03;15.60;99.90
25468;DHT22;13384;24.794;110.498;2023-04-06T01:35:55;15.60;99.90
25468;DHT22;13384;24.794;110.498;2023-04-06T01:38:27;15.70;99.90
25468;DHT22;13384;24.794;110.498;2023-04-06T01:40:59;15.70;99.90
25468;DHT22;13384;24.794;110.498;2023-04-06T01:43:37;15.80;99.90
25468;DHT22;13384;24.794;110.498;2023-04-06T01:46:10;15.70;99.90
25468;DHT22;13384;24.794;110.498;2023-04-06T01:48:54;15.80;99.90
25468;DHT22;13384;24.794;110.498;2023-04-06T01:51:35;15.80;99.90
25468;DHT22;13384;24.794;110.498;2023-04-06T01:54:11;15.80;99.90
25468;DHT22;13384;24.794;110.498;2023-04-06T01:56:58;15.90;99.90
25468;DHT22;13384;24.794;110.498;2023-04-06T01:59:37;15.90;99.90
25468;DHT22;13384;24.794;110.498;2023-04-06T02:02:18;15.90;99.90
25468;DHT22;13384;24.794;110.498;2023-04-06T02:05:16;15.90;99.90
25468;DHT22;13384;24.794;110.498;2023-04-06T02:07:48;15.90;99.90
25468;DHT22;13384;24.794;110.498;2023-04-06T02:10:27;15.80;99.90
25468;DHT22;13384;24.794;110.498;2023-04-06T02:13:01;15.90;99.90
25468;DHT22;13384;24.794;110.498;2023-04-06T02:15:33;15.70;99.90
25468;DHT22;13384;24.794;110.498;2023-04-06T02:18:07;15.90;99.90
25468;DHT22;13384;24.794;110.498;2023-04-06T02:20:42;15.90;99.90
25468;DHT22;13384;24.794;110.498;2023-04-06T02:23:14;15.90;99.90
25468;DHT22;13384;24.794;110.498;2023-04-06T02:25:45;15.80;99.90
25468;DHT22;13384;24.794;110.498;2023-04-06T02:28:20;16.00;99.90
25468;DHT22;13384;24.794;110.498;2023-04-06T02:30:52;16.10;99.90
25468;DHT22;13384;24.794;110.498;2023-04-06T02:33:27;15.70;99.90
25468;DHT22;13384;24.794;110.498;2023-04-06T02:35:59;15.70;99.90
25468;DHT22;13384;24.794;110.498;2023-04-06T02:38:34;15.70;99.90
25468;DHT22;13384;24.794;110.498;2023-04-06T02:41:26;15.90;99.90
25468;DHT22;13384;24.794;110.498;2023-04-06T02:44:01;16.10;99.90
25468;DHT22;13384;24.794;110.498;2023-04-06T02:46:42;16.10;99.90
25468;DHT22;13384;24.794;110.498;2023-04-06T02:49:15;16.10;99.90
25468;DHT22;13384;24.794;110.498;2023-04-06T02:51:47;16.00;99.90
25468;DHT22;13384;24.794;110.498;2023-04-06T02:54:26;16.10;99.90
25468;DHT22;13384;24.794;110.498;2023-04-06T02:57:20;16.00;99.90
25468;DHT22;13384;24.794;110.498;2023-04-06T02:59:56;16.00;99.90
25468;DHT22;13384;24.794;110.498;2023-04-06T03:02:54;15.90;99.90
25468;DHT22;13384;24.794;110.498;2023-04-06T03:05:27;15.90;99.90
25468;DHT22;13384;24.794;110.498;2023-04-06T03:08:03;16.10;99.90
25468;DHT22;13384;24.794;110.498;2023-04-06T03:11:00;16.10;99.90
25468;DHT22;13384;24.794;110.498;2023-04-06T03:13:51;16.30;99.90
25468;DHT22;13384;24.794;110.498;2023-04-06T03:16:47;16.30;99.90
25468;DHT22;13384;24.794;110.498;2023-04-06T03:19:23;16.10;99.90
25468;DHT22;13384;24.794;110.498;2023-04-06T03:21:57;16.10;99.90
25468;DHT22;13384;24.794;110.498;2023-04-06T03:24:29;16.00;99.90
25468;DHT22;13384;24.794;110.498;2023-04-06T03:27:03;16.10;99.90
25468;DHT22;13384;24.794;110.498;2023-04-06T03:29:48;16.20;99.90
25468;DHT22;13384;24.794;110.498;2023-04-06T03:32:30;16.20;99.90
25468;DHT22;13384;24.794;110.498;2023-04-06T03:35:24;16.30;99.90
25468;DHT22;13384;24.794;110.498;2023-04-06T03:37:58;16.50;99.90
25468;DHT22;13384;24.794;110.498;2023-04-06T03:40:31;16.60;99.90
25468;DHT22;13384;24.794;110.498;2023-04-06T03:43:04;16.50;99.90
25468;DHT22;13384;24.794;110.498;2023-04-06T03:45:40;16.60;99.90
25468;DHT22;13384;24.794;110.498;2023-04-06T03:48:13;16.60;99.90
25468;DHT22;13384;24.794;110.498;2023-04-06T03:50:44;16.50;99.90
25468;DHT22;13384;24.794;110.498;2023-04-06T03:53:27;16.60;99.90
25468;DHT22;13384;24.794;110.498;2023-04-06T03:55:58;16.50;99.90
25468;DHT22;13384;24.794;110.498;2023-04-06T03:58:33;16.60;99.90
25468;DHT22;13384;24.794;110.498;2023-04-06T04:01:05;16.80;99.90
25468;DHT22;13384;24.794;110.498;2023-04-06T04:03:37;16.50;99.90
25468;DHT22;13384;24.794;110.498;2023-04-06T04:06:09;16.40;99.90
25468;DHT22;13384;24.794;110.498;2023-04-06T04:08:41;16.40;99.90
25468;DHT22;13384;24.794;110.498;2023-04-06T04:11:13;16.40;99.90
25468;DHT22;13384;24.794;110.498;2023-04-06T04:13:50;16.30;99.90
25468;DHT22;13384;24.794;110.498;2023-04-06T04:16:21;16.50;99.90
25468;DHT22;13384;24.794;110.498;2023-04-06T04:18:53;16.50;99.90
25468;DHT22;13384;24.794;110.498;2023-04-06T04:21:31;16.40;99.90
25468;DHT22;13384;24.794;110.498;2023-04-06T04:24:09;16.60;99.90
25468;DHT22;13384;24.794;110.498;2023-04-06T04:26:42;16.70;99.90
25468;DHT22;13384;24.794;110.498;2023-04-06T04:29:15;16.70;99.90
25468;DHT22;13384;24.794;110.498;2023-04-06T04:31:47;16.80;99.90
25468;DHT22;13384;24.794;110.498;2023-04-06T04:34:19;16.70;99.90
25468;DHT22;13384;24.794;110.498;2023-04-06T04:36:52;16.70;99.90
25468;DHT22;13384;24.794;110.498;2023-04-06T04:39:34;16.70;99.90
25468;DHT22;13384;24.794;110.498;2023-04-06T04:42:11;16.80;99.90
25468;DHT22;13384;24.794;110.498;2023-04-06T04:44:52;16.80;99.90
25468;DHT22;13384;24.794;110.498;2023-04-06T04:47:36;16.70;99.90
25468;DHT22;13384;24.794;110.498;2023-04-06T04:50:12;16.70;99.90
25468;DHT22;13384;24.794;110.498;2023-04-06T04:53:05;16.80;99.90
25468;DHT22;13384;24.794;110.498;2023-04-06T04:56:05;17.00;99.90
25468;DHT22;13384;24.794;110.498;2023-04-06T04:59:31;17.20;99.90
25468;DHT22;13384;24.794;110.498;2023-04-06T05:02:30;17.20;99.90
25468;DHT22;13384;24.794;110.498;2023-04-06T05:05:14;17.30;99.90
25468;DHT22;13384;24.794;110.498;2023-04-06T05:08:08;17.50;99.90
25468;DHT22;13384;24.794;110.498;2023-04-06T05:11:03;17.50;99.90
25468;DHT22;13384;24.794;110.498;2023-04-06T05:13:39;17.70;99.90
25468;DHT22;13384;24.794;110.498;2023-04-06T05:16:19;17.80;99.90
25468;DHT22;13384;24.794;110.498;2023-04-06T05:18:52;17.80;99.90
25468;DHT22;13384;24.794;110.498;2023-04-06T05:21:43;18.00;99.90
25468;DHT22;13384;24.794;110.498;2023-04-06T05:24:15;18.00;99.90
25468;DHT22;13384;24.794;110.498;2023-04-06T05:26:53;18.10;99.90
25468;DHT22;13384;24.794;110.498;2023-04-06T05:29:45;18.10;99.90
25468;DHT22;13384;24.794;110.498;2023-04-06T05:32:21;18.00;99.90
25468;DHT22;13384;24.794;110.498;2023-04-06T05:34:54;18.00;99.90
25468;DHT22;13384;24.794;110.498;2023-04-06T05:38:24;18.10;99.90
25468;DHT22;13384;24.794;110.498;2023-04-06T05:41:39;18.00;99.90
25468;DHT22;13384;24.794;110.498;2023-04-06T05:44:37;18.00;99.90
25468;DHT22;13384;24.794;110.498;2023-04-06T05:47:28;18.00;99.90
25468;DHT22;13384;24.794;110.498;2023-04-06T05:50:15;18.10;99.90
25468;DHT22;13384;24.794;110.498;2023-04-06T05:52:48;18.10;99.90
25468;DHT22;13384;24.794;110.498;2023-04-06T05:55:23;18.20;99.90
25468;DHT22;13384;24.794;110.498;2023-04-06T05:58:06;18.10;99.90
25468;DHT22;13384;24.794;110.498;2023-04-06T06:00:37;18.10;99.90
25468;DHT22;13384;24.794;110.498;2023-04-06T06:03:39;18.10;99.90
25468;DHT22;13384;24.794;110.498;2023-04-06T06:06:13;18.10;99.90
25468;DHT22;13384;24.794;110.498;2023-04-06T06:09:10;18.10;99.90
25468;DHT22;13384;24.794;110.498;2023-04-06T06:11:49;18.10;99.90
25468;DHT22;13384;24.794;110.498;2023-04-06T06:14:27;18.10;99.90
25468;DHT22;13384;24.794;110.498;2023-04-06T06:17:08;18.10;99.90
25468;DHT22;13384;24.794;110.498;2023-04-06T06:19:40;17.90;99.90
25468;DHT22;13384;24.794;110.498;2023-04-06T06:22:13;17.70;99.90
25468;DHT22;13384;24.794;110.498;2023-04-06T06:24:49;17.60;99.90
25468;DHT22;13384;24.794;110.498;2023-04-06T06:27:22;17.70;99.90
25468;DHT22;13384;24.794;110.498;2023-04-06T06:29:54;17.90;99.90
25468;DHT22;13384;24.794;110.498;2023-04-06T06:32:42;17.90;99.90
25468;DHT22;13384;24.794;110.498;2023-04-06T06:35:14;18.00;99.90
25468;DHT22;13384;24.794;110.498;2023-04-06T06:37:46;18.00;99.90
25468;DHT22;13384;24.794;110.498;2023-04-06T06:40:21;18.20;99.90
25468;DHT22;13384;24.794;110.498;2023-04-06T06:42:57;18.30;99.90
25468;DHT22;13384;24.794;110.498;2023-04-06T06:45:44;18.30;99.90
25468;DHT22;13384;24.794;110.498;2023-04-06T06:48:17;18.30;99.90
25468;DHT22;13384;24.794;110.498;2023-04-06T06:50:49;18.40;99.90
25468;DHT22;13384;24.794;110.498;2023-04-06T06:53:20;18.60;99.90
25468;DHT22;13384;24.794;110.498;2023-04-06T06:55:52;18.70;99.90
25468;DHT22;13384;24.794;110.498;2023-04-06T06:58:24;18.70;99.90
25468;DHT22;13384;24.794;110.498;2023-04-06T07:00:59;18.70;99.90
25468;DHT22;13384;24.794;110.498;2023-04-06T07:03:36;18.70;99.90
25468;DHT22;13384;24.794;110.498;2023-04-06T07:06:07;18.70;99.90
25468;DHT22;13384;24.794;110.498;2023-04-06T07:08:41;18.80;99.90
25468;DHT22;13384;24.794;110.498;2023-04-06T07:11:15;18.80;99.90
25468;DHT22;13384;24.794;110.498;2023-04-06T07:13:46;18.90;99.90
25468;DHT22;13384;24.794;110.498;2023-04-06T07:16:18;18.90;99.90
25468;DHT22;13384;24.794;110.498;2023-04-06T07:18:49;18.70;99.90
25468;DHT22;13384;24.794;110.498;2023-04-06T07:21:21;18.90;99.90
25468;DHT22;13384;24.794;110.498;2023-04-06T07:23:53;18.90;99.90
25468;DHT22;13384;24.794;110.498;2023-04-06T07:26:24;18.80;99.90
25468;DHT22;13384;24.794;110.498;2023-04-06T07:28:56;18.80;99.90
25468;DHT22;13384;24.794;110.498;2023-04-06T07:31:29;19.00;99.90
25468;DHT22;13384;24.794;110.498;2023-04-06T07:34:01;19.10;99.90
25468;DHT22;13384;24.794;110.498;2023-04-06T07:36:32;19.20;99.90
25468;DHT22;13384;24.794;110.498;2023-04-06T07:39:05;19.50;99.90
25468;DHT22;13384;24.794;110.498;2023-04-06T07:41:38;19.40;99.90
25468;DHT22;13384;24.794;110.498;2023-04-06T07:44:10;19.70;99.90
25468;DHT22;13384;24.794;110.498;2023-04-06T07:46:42;20.00;99.90
25468;DHT22;13384;24.794;110.498;2023-04-06T07:49:14;20.20;99.90
25468;DHT22;13384;24.794;110.498;2023-04-06T07:51:46;20.00;99.90
25468;DHT22;13384;24.794;110.498;2023-04-06T07:54:17;20.00;99.90
25468;DHT22;13384;24.794;110.498;2023-04-06T07:56:49;19.80;99.90
25468;DHT22;13384;24.794;110.498;2023-04-06T07:59:22;19.80;99.90
25468;DHT22;13384;24.794;110.498;2023-04-06T08:02:13;19.80;99.90
25468;DHT22;13384;24.794;110.498;2023-04-06T08:04:47;19.80;99.90
25468;DHT22;13384;24.794;110.498;2023-04-06T08:07:19;19.80;99.90
25468;DHT22;13384;24.794;110.498;2023-04-06T08:09:52;19.70;99.90
25468;DHT22;13384;24.794;110.498;2023-04-06T08:12:24;19.90;99.90
25468;DHT22;13384;24.794;110.498;2023-04-06T08:14:55;20.10;99.90
25468;DHT22;13384;24.794;110.498;2023-04-06T08:17:28;20.30;99.90
25468;DHT22;13384;24.794;110.498;2023-04-06T08:20:02;20.60;99.90
25468;DHT22;13384;24.794;110.498;2023-04-06T08:22:34;20.80;99.90
25468;DHT22;13384;24.794;110.498;2023-04-06T08:25:06;21.00;99.90
25468;DHT22;13384;24.794;110.498;2023-04-06T08:27:37;20.90;99.90
25468;DHT22;13384;24.794;110.498;2023-04-06T08:30:08;20.90;99.90
25468;DHT22;13384;24.794;110.498;2023-04-06T08:32:40;20.70;99.90
25468;DHT22;13384;24.794;110.498;2023-04-06T08:35:22;20.90;99.90
25468;DHT22;13384;24.794;110.498;2023-04-06T08:37:54;21.10;99.90
25468;DHT22;13384;24.794;110.498;2023-04-06T08:40:28;21.30;99.90
25468;DHT22;13384;24.794;110.498;2023-04-06T08:43:03;21.40;99.90
25468;DHT22;13384;24.794;110.498;2023-04-06T08:45:58;21.50;99.90
25468;DHT22;13384;24.794;110.498;2023-04-06T08:48:50;21.70;99.90
25468;DHT22;13384;24.794;110.498;2023-04-06T08:51:23;21.80;99.90
25468;DHT22;13384;24.794;110.498;2023-04-06T08:53:58;21.70;99.90
25468;DHT22;13384;24.794;110.498;2023-04-06T08:56:30;21.80;99.90
25468;DHT22;13384;24.794;110.498;2023-04-06T08:59:03;21.70;99.90
25468;DHT22;13384;24.794;110.498;2023-04-06T09:01:39;21.90;99.90
25468;DHT22;13384;24.794;110.498;2023-04-06T09:04:15;22.00;99.90
25468;DHT22;13384;24.794;110.498;2023-04-06T09:06:48;21.80;99.80
25468;DHT22;13384;24.794;110.498;2023-04-06T09:09:40;21.60;99.90
25468;DHT22;13384;24.794;110.498;2023-04-06T09:12:31;21.70;99.90
25468;DHT22;13384;24.794;110.498;2023-04-06T09:15:21;21.80;99.80
25468;DHT22;13384;24.794;110.498;2023-04-06T09:17:53;21.90;99.90
25468;DHT22;13384;24.794;110.498;2023-04-06T09:20:25;21.90;99.80
25468;DHT22;13384;24.794;110.498;2023-04-06T09:22:59;21.90;98.50
25468;DHT22;13384;24.794;110.498;2023-04-06T09:25:31;21.90;99.60
25468;DHT22;13384;24.794;110.498;2023-04-06T09:28:23;22.00;98.80
25468;DHT22;13384;24.794;110.498;2023-04-06T09:30:54;21.80;98.80
25468;DHT22;13384;24.794;110.498;2023-04-06T09:33:26;21.70;98.40
25468;DHT22;13384;24.794;110.498;2023-04-06T09:36:01;21.60;99.20
25468;DHT22;13384;24.794;110.498;2023-04-06T09:38:32;21.30;99.70
25468;DHT22;13384;24.794;110.498;2023-04-06T09:41:04;21.30;99.90
25468;DHT22;13384;24.794;110.498;2023-04-06T09:43:36;21.50;99.90
25468;DHT22;13384;24.794;110.498;2023-04-06T09:46:08;21.50;99.90
25468;DHT22;13384;24.794;110.498;2023-04-06T09:48:40;21.30;99.10
25468;DHT22;13384;24.794;110.498;2023-04-06T09:51:16;21.30;99.40
25468;DHT22;13384;24.794;110.498;2023-04-06T09:53:52;21.10;99.00
25468;DHT22;13384;24.794;110.498;2023-04-06T09:56:50;21.10;99.70
25468;DHT22;13384;24.794;110.498;2023-04-06T10:02:00;20.90;99.90
25468;DHT22;13384;24.794;110.498;2023-04-06T10:04:43;20.80;99.70
25468;DHT22;13384;24.794;110.498;2023-04-06T10:07:15;20.70;99.90
25468;DHT22;13384;24.794;110.498;2023-04-06T10:09:48;20.60;99.90
25468;DHT22;13384;24.794;110.498;2023-04-06T10:12:22;20.50;99.90
25468;DHT22;13384;24.794;110.498;2023-04-06T10:15:04;20.50;99.90
25468;DHT22;13384;24.794;110.498;2023-04-06T10:17:37;20.40;99.90
25468;DHT22;13384;24.794;110.498;2023-04-06T10:25:57;20.00;99.90
25468;DHT22;13384;24.794;110.498;2023-04-06T10:28:33;19.90;99.90
25468;DHT22;13384;24.794;110.498;2023-04-06T10:31:11;19.80;99.90
25468;DHT22;13384;24.794;110.498;2023-04-06T10:33:57;19.60;99.90
25468;DHT22;13384;24.794;110.498;2023-04-06T10:36:33;19.50;99.90
25468;DHT22;13384;24.794;110.498;2023-04-06T10:39:07;19.40;99.90
25468;DHT22;13384;24.794;110.498;2023-04-06T10:41:43;19.30;99.90
25468;DHT22;13384;24.794;110.498;2023-04-06T10:44:26;19.30;99.90
25468;DHT22;13384;24.794;110.498;2023-04-06T10:47:02;19.10;99.90
25468;DHT22;13384;24.794;110.498;2023-04-06T10:49:33;19.10;99.90
25468;DHT22;13384;24.794;110.498;2023-04-06T10:52:07;18.90;99.90
25468;DHT22;13384;24.794;110.498;2023-04-06T10:54:42;18.80;99.90
25468;DHT22;13384;24.794;110.498;2023-04-06T10:57:28;18.80;99.90
25468;DHT22;13384;24.794;110.498;2023-04-06T11:00:01;18.60;99.90
25468;DHT22;13384;24.794;110.498;2023-04-06T11:02:37;18.50;99.90
25468;DHT22;13384;24.794;110.498;2023-04-06T11:05:11;18.50;99.90
25468;DHT22;13384;24.794;110.498;2023-04-06T11:07:44;18.40;99.90
25468;DHT22;13384;24.794;110.498;2023-04-06T11:10:23;18.20;99.90
25468;DHT22;13384;24.794;110.498;2023-04-06T11:12:55;18.10;99.90
25468;DHT22;13384;24.794;110.498;2023-04-06T11:15:33;18.10;99.90
25468;DHT22;13384;24.794;110.498;2023-04-06T11:18:18;17.90;99.90
25468;DHT22;13384;24.794;110.498;2023-04-06T11:20:52;17.80;99.90
25468;DHT22;13384;24.794;110.498;2023-04-06T11:23:25;17.70;99.90
25468;DHT22;13384;24.794;110.498;2023-04-06T11:25:57;17.60;99.90
25468;DHT22;13384;24.794;110.498;2023-04-06T11:28:48;17.60;99.90
25468;DHT22;13384;24.794;110.498;2023-04-06T11:31:31;17.50;99.90
25468;DHT22;13384;24.794;110.498;2023-04-06T11:34:10;17.40;99.90
25468;DHT22;13384;24.794;110.498;2023-04-06T11:36:58;17.40;99.90
25468;DHT22;13384;24.794;110.498;2023-04-06T11:39:55;17.30;99.90
25468;DHT22;13384;24.794;110.498;2023-04-06T11:42:29;17.20;99.90
25468;DHT22;13384;24.794;110.498;2023-04-06T11:45:01;17.20;99.90
25468;DHT22;13384;24.794;110.498;2023-04-06T11:47:35;17.20;99.90
25468;DHT22;13384;24.794;110.498;2023-04-06T11:50:11;17.20;99.90
25468;DHT22;13384;24.794;110.498;2023-04-06T11:52:43;17.10;99.90
25468;DHT22;13384;24.794;110.498;2023-04-06T11:55:17;17.00;99.90
25468;DHT22;13384;24.794;110.498;2023-04-06T11:57:48;17.00;99.90
25468;DHT22;13384;24.794;110.498;2023-04-06T12:00:40;16.90;99.90
25468;DHT22;13384;24.794;110.498;2023-04-06T12:03:19;16.60;99.90
25468;DHT22;13384;24.794;110.498;2023-04-06T12:05:51;16.60;99.90
25468;DHT22;13384;24.794;110.498;2023-04-06T12:08:24;16.70;99.90
25468;DHT22;13384;24.794;110.498;2023-04-06T12:10:56;16.60;99.90
25468;DHT22;13384;24.794;110.498;2023-04-06T12:13:28;16.60;99.90
25468;DHT22;13384;24.794;110.498;2023-04-06T12:16:15;16.60;99.90
25468;DHT22;13384;24.794;110.498;2023-04-06T12:18:50;16.40;99.90
25468;DHT22;13384;24.794;110.498;2023-04-06T12:21:49;16.40;99.90
25468;DHT22;13384;24.794;110.498;2023-04-06T12:24:21;16.60;99.90
25468;DHT22;13384;24.794;110.498;2023-04-06T12:27:12;16.30;99.90
25468;DHT22;13384;24.794;110.498;2023-04-06T12:30:09;16.30;99.90
25468;DHT22;13384;24.794;110.498;2023-04-06T12:32:41;16.40;99.90
25468;DHT22;13384;24.794;110.498;2023-04-06T12:35:16;16.50;99.90
25468;DHT22;13384;24.794;110.498;2023-04-06T12:37:50;16.40;99.90
25468;DHT22;13384;24.794;110.498;2023-04-06T12:40:43;16.30;99.90
25468;DHT22;13384;24.794;110.498;2023-04-06T12:43:41;16.20;99.90
25468;DHT22;13384;24.794;110.498;2023-04-06T12:46:15;16.20;99.90
25468;DHT22;13384;24.794;110.498;2023-04-06T12:48:47;16.10;99.90
25468;DHT22;13384;24.794;110.498;2023-04-06T12:51:21;16.10;99.90
25468;DHT22;13384;24.794;110.498;2023-04-06T12:54:15;16.00;99.90
25468;DHT22;13384;24.794;110.498;2023-04-06T12:57:07;16.00;99.90
25468;DHT22;13384;24.794;110.498;2023-04-06T13:00:27;16.00;99.90
25468;DHT22;13384;24.794;110.498;2023-04-06T13:03:01;16.00;99.90
25468;DHT22;13384;24.794;110.498;2023-04-06T13:05:53;15.60;99.90
25468;DHT22;13384;24.794;110.498;2023-04-06T13:08:27;15.80;99.90
25468;DHT22;13384;24.794;110.498;2023-04-06T13:11:00;15.80;99.90
25468;DHT22;13384;24.794;110.498;2023-04-06T13:13:46;15.70;99.90
25468;DHT22;13384;24.794;110.498;2023-04-06T13:16:19;15.80;99.90
25468;DHT22;13384;24.794;110.498;2023-04-06T13:19:11;15.90;99.90
25468;DHT22;13384;24.794;110.498;2023-04-06T13:21:45;15.90;99.90
25468;DHT22;13384;24.794;110.498;2023-04-06T13:24:56;15.80;99.90
25468;DHT22;13384;24.794;110.498;2023-04-06T13:27:28;15.70;99.90
25468;DHT22;13384;24.794;110.498;2023-04-06T13:30:00;15.80;99.90
25468;DHT22;13384;24.794;110.498;2023-04-06T13:32:32;15.80;99.90
25468;DHT22;13384;24.794;110.498;2023-04-06T13:35:06;15.60;99.90
25468;DHT22;13384;24.794;110.498;2023-04-06T13:37:40;15.50;99.90
25468;DHT22;13384;24.794;110.498;2023-04-06T13:40:33;15.50;99.90
25468;DHT22;13384;24.794;110.498;2023-04-06T13:43:06;15.40;99.90
25468;DHT22;13384;24.794;110.498;2023-04-06T13:45:39;15.50;99.90
25468;DHT22;13384;24.794;110.498;2023-04-06T13:48:15;15.50;99.90
25468;DHT22;13384;24.794;110.498;2023-04-06T13:50:47;15.60;99.90
25468;DHT22;13384;24.794;110.498;2023-04-06T13:53:40;15.60;99.90
25468;DHT22;13384;24.794;110.498;2023-04-06T13:56:32;15.50;99.90
25468;DHT22;13384;24.794;110.498;2023-04-06T13:59:04;15.50;99.90
25468;DHT22;13384;24.794;110.498;2023-04-06T14:01:43;15.50;99.90
25468;DHT22;13384;24.794;110.498;2023-04-06T14:04:16;15.60;99.90
25468;DHT22;13384;24.794;110.498;2023-04-06T14:06:49;15.40;99.90
25468;DHT22;13384;24.794;110.498;2023-04-06T14:09:41;15.40;99.90
25468;DHT22;13384;24.794;110.498;2023-04-06T14:12:48;15.40;99.90
25468;DHT22;13384;24.794;110.498;2023-04-06T14:15:20;15.40;99.90
25468;DHT22;13384;24.794;110.498;2023-04-06T14:18:08;15.40;99.90
25468;DHT22;13384;24.794;110.498;2023-04-06T14:21:00;15.40;99.90
25468;DHT22;13384;24.794;110.498;2023-04-06T14:24:26;15.40;99.90
25468;DHT22;13384;24.794;110.498;2023-04-06T14:27:00;15.50;99.90
25468;DHT22;13384;24.794;110.498;2023-04-06T14:30:13;15.20;99.90
25468;DHT22;13384;24.794;110.498;2023-04-06T14:32:45;15.00;99.90
25468;DHT22;13384;24.794;110.498;2023-04-06T14:35:40;14.90;99.90
25468;DHT22;13384;24.794;110.498;2023-04-06T14:38:19;15.00;99.90
25468;DHT22;13384;24.794;110.498;2023-04-06T14:40:50;15.20;99.90
25468;DHT22;13384;24.794;110.498;2023-04-06T14:43:22;15.20;99.90
25468;DHT22;13384;24.794;110.498;2023-04-06T14:46:14;15.10;99.90
25468;DHT22;13384;24.794;110.498;2023-04-06T14:48:50;15.10;99.90
25468;DHT22;13384;24.794;110.498;2023-04-06T14:51:47;15.10;99.90
25468;DHT22;13384;24.794;110.498;2023-04-06T14:54:44;15.10;99.90
25468;DHT22;13384;24.794;110.498;2023-04-06T14:57:16;15.10;99.90
25468;DHT22;13384;24.794;110.498;2023-04-06T14:59:47;15.10;99.90
25468;DHT22;13384;24.794;110.498;2023-04-06T15:02:35;15.10;99.90
25468;DHT22;13384;24.794;110.498;2023-04-06T15:05:28;15.10;99.90
25468;DHT22;13384;24.794;110.498;2023-04-06T15:08:00;15.10;99.90
25468;DHT22;13384;24.794;110.498;2023-04-06T15:10:34;15.10;99.90
25468;DHT22;13384;24.794;110.498;2023-04-06T15:13:13;15.10;99.90
25468;DHT22;13384;24.794;110.498;2023-04-06T15:16:07;15.10;99.90
25468;DHT22;13384;24.794;110.498;2023-04-06T15:18:39;15.00;99.90
25468;DHT22;13384;24.794;110.498;2023-04-06T15:21:43;15.10;99.90
25468;DHT22;13384;24.794;110.498;2023-04-06T15:24:38;15.10;99.90
25468;DHT22;13384;24.794;110.498;2023-04-06T15:27:10;15.20;99.90
25468;DHT22;13384;24.794;110.498;2023-04-06T15:29:46;15.10;99.90
25468;DHT22;13384;24.794;110.498;2023-04-06T15:32:18;14.90;99.90
25468;DHT22;13384;24.794;110.498;2023-04-06T15:34:57;14.80;99.90
25468;DHT22;13384;24.794;110.498;2023-04-06T15:38:05;14.80;99.90
25468;DHT22;13384;24.794;110.498;2023-04-06T15:40:45;14.70;99.90
25468;DHT22;13384;24.794;110.498;2023-04-06T15:43:18;14.60;99.90
25468;DHT22;13384;24.794;110.498;2023-04-06T15:46:10;14.60;99.90
25468;DHT22;13384;24.794;110.498;2023-04-06T15:48:45;14.70;99.90
25468;DHT22;13384;24.794;110.498;2023-04-06T15:51:16;14.80;99.90
25468;DHT22;13384;24.794;110.498;2023-04-06T15:53:51;14.60;99.90
25468;DHT22;13384;24.794;110.498;2023-04-06T15:56:36;14.80;99.90
25468;DHT22;13384;24.794;110.498;2023-04-06T15:59:08;14.80;99.90
25468;DHT22;13384;24.794;110.498;2023-04-06T16:01:40;14.60;99.90
25468;DHT22;13384;24.794;110.498;2023-04-06T16:04:12;14.60;99.90
25468;DHT22;13384;24.794;110.498;2023-04-06T16:07:02;14.70;99.90
25468;DHT22;13384;24.794;110.498;2023-04-06T16:09:36;14.60;99.90
25468;DHT22;13384;24.794;110.498;2023-04-06T16:12:08;14.70;99.90
25468;DHT22;13384;24.794;110.498;2023-04-06T16:14:51;14.60;99.90
25468;DHT22;13384;24.794;110.498;2023-04-06T16:17:23;14.70;99.90
25468;DHT22;13384;24.794;110.498;2023-04-06T16:19:57;14.70;99.90
25468;DHT22;13384;24.794;110.498;2023-04-06T16:22:28;14.70;99.90